Time;durP1;ratioP1;P1;durP2;ratioP2;P2;SDS_P1;SDS_P2;PMS_P1;PMS_P2;Temp;Humidity;BMP_temperature;BMP_pressure;BME280_temperature;BME280_humidity;BME280_pressure;Samples;Min_cycle;Max_cycle;Signal;HPM_P1;HPM_P2
2023/09/30 00:01:43;;;;;;;;;;;;;;;;;;5082970;28;19924;-78
2023/09/30 00:04:10;;;;;;;;;;;;;;;;;;5085172;28;20011;-78
2023/09/30 00:06:37;;;;;;;;;;;;;;;;;;5090346;28;20279;-78
2023/09/30 00:09:05;;;;;;;;;;;;;;;;;;5091481;28;19977;-77
2023/09/30 00:11:32;;;;;;;;;;;;;;;;;;5078491;28;20064;-77
2023/09/30 00:13:59;;;;;;;;;;;;;;;;;;5080648;28;19923;-78
2023/09/30 00:16:26;;;;;;;;;;;;;;;;;;5091555;28;19924;-78
2023/09/30 00:18:54;;;;;;;;;;;;;;;;;;5088458;28;19925;-78
2023/09/30 00:21:21;;;;;;;;;;;;;;;;;;5079819;28;19978;-77
2023/09/30 00:23:48;;;;;;;;;;;;;;;;;;5077488;28;19928;-78
2023/09/30 00:26:17;;;;;;;;;;;;;;;;;;5072216;28;23566;-78
2023/09/30 00:28:44;;;;;;;;;;;;;;;;;;5087657;28;19978;-78
2023/09/30 00:31:11;;;;;;;;;;;;;;;;;;5088028;28;19969;-77
2023/09/30 00:33:38;;;;;;;;;;;;;;;;;;5082055;28;19930;-78
2023/09/30 00:36:05;;;;;;;;;;;;;;;;;;5089845;28;19967;-79
2023/09/30 00:38:32;;;;;;;;;;;;;;;;;;5080851;28;19928;-79
2023/09/30 00:40:59;;;;;;;;;;;;;;;;;;5075714;28;19985;-79
2023/09/30 00:43:26;;;;;;;;;;;;;;;;;;5075310;28;19924;-79
2023/09/30 00:45:53;;;;;;;;;;;;;;;;;;5072919;28;19928;-79
2023/09/30 00:48:20;;;;;;;;;;;;;;;;;;5088043;28;19930;-78
2023/09/30 00:50:47;;;;;;;;;;;;;;;;;;5077813;28;19970;-78
2023/09/30 00:53:14;;;;;;;;;;;;;;;;;;5092704;28;19982;-78
2023/09/30 00:55:41;;;;;;;;;;;;;;;;;;5083377;28;19994;-78
2023/09/30 00:58:08;;;;;;;;;;;;;;;;;;5085531;28;19928;-77
2023/09/30 01:00:35;;;;;;;;;;;;;;;;;;5082801;28;19935;-78
2023/09/30 01:03:03;;;;;;;;;;;;;;;;;;5087134;28;19934;-78
2023/09/30 01:05:30;;;;;;;;;;;;;;;;;;5084861;28;20291;-78
2023/09/30 01:07:58;;;;;;;;;;;;;;;;;;5079053;28;19932;-78
2023/09/30 01:10:25;;;;;;;;;;;;;;;;;;5092232;28;20347;-78
2023/09/30 01:12:52;;;;;;;;;;;;;;;;;;5092300;28;19928;-78
2023/09/30 01:15:19;;;;;;;;;;;;;;;;;;5087815;28;20338;-79
2023/09/30 01:17:46;;;;;;;;;;;;;;;;;;5082794;28;19932;-78
2023/09/30 01:20:16;;;;;;;;;;;;;;;;;;5089082;28;20317;-78
2023/09/30 01:22:44;;;;;;;;;;;;;;;;;;5092370;28;19931;-79
2023/09/30 01:25:12;;;;;;;;;;;;;;;;;;5079996;28;19924;-79
2023/09/30 01:27:39;;;;;;;;;;;;;;;;;;5082579;28;19931;-78
2023/09/30 01:30:06;;;;;;;;;;;;;;;;;;5090002;28;19925;-77
2023/09/30 01:32:33;;;;;;;;;;;;;;;;;;5077003;28;19924;-80
2023/09/30 01:35:00;;;;;;;;;;;;;;;;;;5072670;28;19924;-78
2023/09/30 01:37:27;;;;;;;;;;;;;;;;;;5088656;28;19931;-78
2023/09/30 01:39:54;;;;;;;;;;;;;;;;;;5085692;28;19986;-78
2023/09/30 01:42:21;;;;;;;;;;;;;;;;;;5081791;28;20019;-78
2023/09/30 01:44:48;;;;;;;;;;;;;;;;;;5072360;28;19930;-78
2023/09/30 01:47:15;;;;;;;;;;;;;;;;;;5079142;28;19928;-79
2023/09/30 01:49:43;;;;;;;;;;;;;;;;;;5079702;28;19924;-78
2023/09/30 01:52:10;;;;;;;;;;;;;;;;;;5072056;28;20358;-78
2023/09/30 01:54:37;;;;;;;;;;;;;;;;;;5076819;28;20386;-78
2023/09/30 01:57:04;;;;;;;;;;;;;;;;;;5084887;28;19970;-78
2023/09/30 01:59:31;;;;;;;;;;;;;;;;;;5076180;28;19986;-78
2023/09/30 02:01:58;;;;;;;;;;;;;;;;;;5070687;28;19929;-78
2023/09/30 02:04:25;;;;;;;;;;;;;;;;;;5084509;28;19932;-79
2023/09/30 02:06:52;;;;;;;;;;;;;;;;;;5084091;28;19924;-78
2023/09/30 02:09:19;;;;;;;;;;;;;;;;;;5083385;28;19924;-79
2023/09/30 02:11:46;;;;;;;;;;;;;;;;;;5073195;28;19928;-78
2023/09/30 02:14:13;;;;;;;;;;;;;;;;;;5075665;28;19925;-79
2023/09/30 02:16:40;;;;;;;;;;;;;;;;;;5078006;28;19978;-78
2023/09/30 02:19:10;;;;;;;;;;;;;;;;;;5071984;28;19925;-78
2023/09/30 02:21:37;;;;;;;;;;;;;;;;;;5080170;28;19928;-79
2023/09/30 02:24:06;;;;;;;;;;;;;;;;;;5095016;28;19977;-79
2023/09/30 02:26:33;;;;;;;;;;;;;;;;;;5095155;28;19993;-78
2023/09/30 02:29:00;;;;;;;;;;;;;;;;;;5086286;28;19970;-78
2023/09/30 02:31:27;;;;;;;;;;;;;;;;;;5079833;28;20433;-78
2023/09/30 02:33:54;;;;;;;;;;;;;;;;;;5088232;28;19978;-79
2023/09/30 02:36:21;;;;;;;;;;;;;;;;;;5075225;28;19978;-78
2023/09/30 02:38:48;;;;;;;;;;;;;;;;;;5089822;28;19927;-78
2023/09/30 02:41:15;;;;;;;;;;;;;;;;;;5082612;28;20421;-79
2023/09/30 02:43:42;;;;;;;;;;;;;;;;;;5081581;28;19925;-79
2023/09/30 02:46:09;;;;;;;;;;;;;;;;;;5076483;28;20025;-79
2023/09/30 02:48:36;;;;;;;;;;;;;;;;;;5098249;28;19924;-79
2023/09/30 02:51:04;;;;;;;;;;;;;;;;;;5092219;28;19925;-79
2023/09/30 02:53:31;;;;;;;;;;;;;;;;;;5086489;28;19929;-79
2023/09/30 02:55:59;;;;;;;;;;;;;;;;;;5089313;28;19924;-79
2023/09/30 02:58:29;;;;;;;;;;;;;;;;;;5086576;28;19925;-79
2023/09/30 03:00:56;;;;;;;;;;;;;;;;;;5087175;28;20295;-78
2023/09/30 03:03:25;;;;;;;;;;;;;;;;;;5091204;28;20000;-79
2023/09/30 03:05:52;;;;;;;;;;;;;;;;;;5093309;28;19935;-78
2023/09/30 03:08:19;;;;;;;;;;;;;;;;;;5074562;28;19925;-79
2023/09/30 03:10:46;;;;;;;;;;;;;;;;;;5086076;28;20303;-79
2023/09/30 03:13:13;;;;;;;;;;;;;;;;;;5075418;28;19924;-79
2023/09/30 03:15:40;;;;;;;;;;;;;;;;;;5091151;28;19931;-79
2023/09/30 03:18:07;;;;;;;;;;;;;;;;;;5078031;28;19968;-81
2023/09/30 03:20:36;;;;;;;;;;;;;;;;;;5074443;28;19925;-81
2023/09/30 03:23:04;;;;;;;;;;;;;;;;;;5075436;28;19955;-81
2023/09/30 03:25:32;;;;;;;;;;;;;;;;;;5084292;28;19931;-79
2023/09/30 03:27:59;;;;;;;;;;;;;;;;;;5081629;28;19930;-80
2023/09/30 03:30:26;;;;;;;;;;;;;;;;;;5078977;28;19968;-79
2023/09/30 03:32:53;;;;;;;;;;;;;;;;;;5084703;28;19977;-82
2023/09/30 03:35:21;;;;;;;;;;;;;;;;;;5077811;28;19924;-80
2023/09/30 03:37:48;;;;;;;;;;;;;;;;;;5093668;28;19970;-81
2023/09/30 03:40:18;;;;;;;;;;;;;;;;;;5088953;28;20002;-80
2023/09/30 03:42:45;;;;;;;;;;;;;;;;;;5076130;28;19978;-80
2023/09/30 03:45:13;;;;;;;;;;;;;;;;;;5086944;28;19950;-80
2023/09/30 03:47:40;;;;;;;;;;;;;;;;;;5093513;28;19947;-80
2023/09/30 03:50:12;;;;;;;;;;;;;;;;;;5094512;28;19970;-80
2023/09/30 03:52:40;;;;;;;;;;;;;;;;;;5093538;28;19924;-81
2023/09/30 03:55:07;;;;;;;;;;;;;;;;;;5092286;28;19967;-80
2023/09/30 03:57:34;;;;;;;;;;;;;;;;;;5086542;28;20346;-81
2023/09/30 04:00:05;;;;;;;;;;;;;;;;;;5076445;28;19988;-80
2023/09/30 04:02:32;;;;;;;;;;;;;;;;;;5076402;28;19924;-79
2023/09/30 04:04:59;;;;;;;;;;;;;;;;;;5086311;28;20294;-80
2023/09/30 04:07:27;;;;;;;;;;;;;;;;;;5094184;28;19974;-81
2023/09/30 04:09:54;;;;;;;;;;;;;;;;;;5092428;28;19924;-80
2023/09/30 04:12:21;;;;;;;;;;;;;;;;;;5085792;28;20276;-80
2023/09/30 04:14:48;;;;;;;;;;;;;;;;;;5085160;28;19925;-81
2023/09/30 04:17:15;;;;;;;;;;;;;;;;;;5073785;28;20461;-81
2023/09/30 04:19:42;;;;;;;;;;;;;;;;;;5093339;28;19977;-81
2023/09/30 04:22:09;;;;;;;;;;;;;;;;;;5093119;28;20353;-80
2023/09/30 04:24:36;;;;;;;;;;;;;;;;;;5084172;28;19929;-81
2023/09/30 04:27:05;;;;;;;;;;;;;;;;;;5074269;28;19925;-81
2023/09/30 04:29:33;;;;;;;;;;;;;;;;;;5073867;28;19970;-81
2023/09/30 04:32:00;;;;;;;;;;;;;;;;;;5077471;28;19970;-81
2023/09/30 04:34:28;;;;;;;;;;;;;;;;;;5084725;28;20010;-78
2023/09/30 04:36:55;;;;;;;;;;;;;;;;;;5094181;28;20002;-80
2023/09/30 04:39:22;;;;;;;;;;;;;;;;;;5094263;28;19928;-81
2023/09/30 04:41:49;;;;;;;;;;;;;;;;;;5093532;28;19924;-81
2023/09/30 04:44:16;;;;;;;;;;;;;;;;;;5084435;28;20268;-80
2023/09/30 04:46:45;;;;;;;;;;;;;;;;;;5081311;28;19938;-81
2023/09/30 04:49:12;;;;;;;;;;;;;;;;;;5087354;28;19963;-79
2023/09/30 04:51:40;;;;;;;;;;;;;;;;;;5080393;28;20291;-80
2023/09/30 04:54:08;;;;;;;;;;;;;;;;;;5083041;28;20043;-79
2023/09/30 04:56:35;;;;;;;;;;;;;;;;;;5077701;28;20333;-80
2023/09/30 04:59:04;;;;;;;;;;;;;;;;;;5099414;28;19924;-80
2023/09/30 05:01:31;;;;;;;;;;;;;;;;;;5094784;28;19931;-80
2023/09/30 05:03:58;;;;;;;;;;;;;;;;;;5082407;28;19954;-80
2023/09/30 05:06:25;;;;;;;;;;;;;;;;;;5087414;28;19946;-80
2023/09/30 05:08:55;;;;;;;;;;;;;;;;;;5088208;28;20015;-80
2023/09/30 05:11:22;;;;;;;;;;;;;;;;;;5089756;28;19931;-80
2023/09/30 05:13:49;;;;;;;;;;;;;;;;;;5088122;28;19990;-80
2023/09/30 05:16:16;;;;;;;;;;;;;;;;;;5074035;28;19928;-81
2023/09/30 05:18:43;;;;;;;;;;;;;;;;;;5070523;28;20451;-81
2023/09/30 05:21:10;;;;;;;;;;;;;;;;;;5078634;28;19924;-80
2023/09/30 05:23:38;;;;;;;;;;;;;;;;;;5075713;28;20028;-81
2023/09/30 05:26:05;;;;;;;;;;;;;;;;;;5088800;28;19950;-80
2023/09/30 05:28:32;;;;;;;;;;;;;;;;;;5086183;28;19928;-79
2023/09/30 05:31:00;;;;;;;;;;;;;;;;;;5083864;28;19929;-79
2023/09/30 05:33:28;;;;;;;;;;;;;;;;;;5079738;28;19924;-78
2023/09/30 05:35:55;;;;;;;;;;;;;;;;;;5073411;28;19928;-80
2023/09/30 05:38:23;;;;;;;;;;;;;;;;;;5075852;28;20303;-78
2023/09/30 05:40:50;;;;;;;;;;;;;;;;;;5072086;28;19929;-77
2023/09/30 05:43:17;;;;;;;;;;;;;;;;;;5078178;28;19924;-77
2023/09/30 05:45:49;;;;;;;;;;;;;;;;;;5074996;28;21295;-78
2023/09/30 05:48:16;;;;;;;;;;;;;;;;;;5092605;28;19924;-78
2023/09/30 05:50:43;;;;;;;;;;;;;;;;;;5074022;28;19924;-75
2023/09/30 05:53:11;;;;;;;;;;;;;;;;;;5084546;28;20019;-75
2023/09/30 05:55:39;;;;;;;;;;;;;;;;;;5073821;28;19932;-74
2023/09/30 05:58:06;;;;;;;;;;;;;;;;;;5077558;28;20027;-75
2023/09/30 06:00:35;;;;;;;;;;;;;;;;;;5075871;28;20279;-75
2023/09/30 06:03:04;;;;;;;;;;;;;;;;;;5089835;28;19970;-74
2023/09/30 06:05:31;;;;;;;;;;;;;;;;;;5072593;28;19975;-75
2023/09/30 06:07:59;;;;;;;;;;;;;;;;;;5073213;28;19970;-73
2023/09/30 06:10:26;;;;;;;;;;;;;;;;;;5086810;28;20387;-73
2023/09/30 06:12:54;;;;;;;;;;;;;;;;;;5084426;28;19929;-74
2023/09/30 06:15:21;;;;;;;;;;;;;;;;;;5080378;28;19970;-75
2023/09/30 06:17:48;;;;;;;;;;;;;;;;;;5079079;28;20461;-75
2023/09/30 06:20:17;;;;;;;;;;;;;;;;;;5081120;28;19928;-75
2023/09/30 06:22:45;;;;;;;;;;;;;;;;;;5081972;28;20445;-76
2023/09/30 06:25:12;;;;;;;;;;;;;;;;;;5079937;28;19925;-74
2023/09/30 06:27:39;;;;;;;;;;;;;;;;;;5076188;28;19947;-74
2023/09/30 06:30:06;;;;;;;;;;;;;;;;;;5071290;28;19925;-72
2023/09/30 06:32:35;;;;;;;;;;;;;;;;;;5076496;28;20386;-73
2023/09/30 06:35:02;;;;;;;;;;;;;;;;;;5073174;28;19930;-71
2023/09/30 06:37:30;;;;;;;;;;;;;;;;;;5077161;28;19932;-72
2023/09/30 06:39:57;;;;;;;;;;;;;;;;;;5085068;28;19959;-73
2023/09/30 06:42:24;;;;;;;;;;;;;;;;;;5091836;28;19985;-73
2023/09/30 06:44:52;;;;;;;;;;;;;;;;;;5089895;28;19924;-75
2023/09/30 06:47:20;;;;;;;;;;;;;;;;;;5088678;28;19924;-75
2023/09/30 06:49:47;;;;;;;;;;;;;;;;;;5079752;28;19970;-75
2023/09/30 06:52:14;;;;;;;;;;;;;;;;;;5086885;28;19928;-76
2023/09/30 06:54:41;;;;;;;;;;;;;;;;;;5075670;28;19925;-76
2023/09/30 06:57:09;;;;;;;;;;;;;;;;;;5081775;28;19928;-75
2023/09/30 06:59:37;;;;;;;;;;;;;;;;;;5080827;28;20391;-76
2023/09/30 07:02:04;;;;;;;;;;;;;;;;;;5080563;28;20413;-77
2023/09/30 07:04:31;;;;;;;;;;;;;;;;;;5080274;28;20382;-78
2023/09/30 07:06:58;;;;;;;;;;;;;;;;;;5078723;28;19972;-77
2023/09/30 07:09:26;;;;;;;;;;;;;;;;;;5076249;28;19924;-76
2023/09/30 07:11:53;;;;;;;;;;;;;;;;;;5086848;28;19924;-74
2023/09/30 07:14:20;;;;;;;;;;;;;;;;;;5078317;28;19932;-77
2023/09/30 07:16:48;;;;;;;;;;;;;;;;;;5088201;28;19967;-77
2023/09/30 07:19:15;;;;;;;;;;;;;;;;;;5088467;28;19924;-77
2023/09/30 07:21:42;;;;;;;;;;;;;;;;;;5085370;28;19962;-77
2023/09/30 07:24:10;;;;;;;;;;;;;;;;;;5078948;28;19924;-77
2023/09/30 07:26:37;;;;;;;;;;;;;;;;;;5085200;28;20011;-77
2023/09/30 07:29:04;;;;;;;;;;;;;;;;;;5080389;28;19924;-76
2023/09/30 07:31:31;;;;;;;;;;;;;;;;;;5082447;28;19924;-75
2023/09/30 07:33:58;;;;;;;;;;;;;;;;;;5087087;28;19967;-76
2023/09/30 07:36:25;;;;;;;;;;;;;;;;;;5085930;28;19991;-76
2023/09/30 07:38:52;;;;;;;;;;;;;;;;;;5088746;22;19970;-75
2023/09/30 07:41:19;;;;;;;;;;;;;;;;;;5088871;28;20378;-79
2023/09/30 07:43:46;;;;;;;;;;;;;;;;;;5081545;28;19924;-78
2023/09/30 07:46:15;;;;;;;;;;;;;;;;;;5072890;28;20409;-75
2023/09/30 07:48:42;;;;;;;;;;;;;;;;;;5084563;28;19928;-76
2023/09/30 07:51:12;;;;;;;;;;;;;;;;;;5082774;28;20266;-77
2023/09/30 07:53:40;;;;;;;;;;;;;;;;;;5081189;28;19931;-77
2023/09/30 07:56:07;;;;;;;;;;;;;;;;;;5076633;28;19948;-79
2023/09/30 07:58:34;;;;;;;;;;;;;;;;;;5078344;28;19924;-76
2023/09/30 08:01:02;;;;;;;;;;;;;;;;;;5092417;28;20424;-76
2023/09/30 08:03:29;;;;;;;;;;;;;;;;;;5077289;28;20014;-71
2023/09/30 08:05:57;;;;;;;;;;;;;;;;;;5075421;28;20359;-74
2023/09/30 08:08:24;;;;;;;;;;;;;;;;;;5082235;28;19924;-72
2023/09/30 08:10:55;;;;;;;;;;;;;;;;;;5074033;28;19970;-78
2023/09/30 08:13:22;;;;;;;;;;;;;;;;;;5077496;28;19935;-78
2023/09/30 08:15:49;;;;;;;;;;;;;;;;;;5073919;28;20009;-77
2023/09/30 08:18:16;;;;;;;;;;;;;;;;;;5083634;28;20488;-77
2023/09/30 08:20:43;;;;;;;;;;;;;;;;;;5075260;28;19928;-77
2023/09/30 08:23:11;;;;;;;;;;;;;;;;;;5076810;28;19970;-77
2023/09/30 08:25:38;;;;;;;;;;;;;;;;;;5086915;28;20375;-77
2023/09/30 08:28:05;;;;;;;;;;;;;;;;;;5080697;28;19925;-77
2023/09/30 08:30:39;;;;;;;;;;;;;;;;;;5077877;28;19970;-78
2023/09/30 08:33:07;;;;;;;;;;;;;;;;;;5084141;28;19924;-80
2023/09/30 08:35:34;;;;;;;;;;;;;;;;;;5073860;28;19928;-77
2023/09/30 08:38:02;;;;;;;;;;;;;;;;;;5089692;28;19959;-75
2023/09/30 08:40:29;;;;;;;;;;;;;;;;;;5075309;28;19928;-72
2023/09/30 08:42:56;;;;;;;;;;;;;;;;;;5079451;28;19928;-75
2023/09/30 08:45:23;;;;;;;;;;;;;;;;;;5080756;28;20021;-76
2023/09/30 08:47:50;;;;;;;;;;;;;;;;;;5073918;28;19935;-78
2023/09/30 08:50:18;;;;;;;;;;;;;;;;;;5067609;28;19929;-78
2023/09/30 08:52:45;;;;;;;;;;;;;;;;;;5074775;28;20333;-77
2023/09/30 08:55:12;;;;;;;;;;;;;;;;;;5077105;28;19929;-78
2023/09/30 08:57:40;;;;;;;;;;;;;;;;;;5070408;28;20015;-74
2023/09/30 09:00:07;;;;;;;;;;;;;;;;;;5075029;28;20014;-75
2023/09/30 09:02:34;;;;;;;;;;;;;;;;;;5079748;28;19924;-75
2023/09/30 09:05:01;;;;;;;;;;;;;;;;;;5075838;28;20299;-74
2023/09/30 09:07:28;;;;;;;;;;;;;;;;;;5085148;28;20412;-75
2023/09/30 09:09:55;;;;;;;;;;;;;;;;;;5080050;28;19959;-73
2023/09/30 09:12:23;;;;;;;;;;;;;;;;;;5081410;28;19985;-74
2023/09/30 09:14:49;;;;;;;;;;;;;;;;;;5077648;28;19931;-74
2023/09/30 09:17:17;;;;;;;;;;;;;;;;;;5078513;28;19924;-74
2023/09/30 09:19:44;;;;;;;;;;;;;;;;;;5083204;28;19924;-73
2023/09/30 09:22:11;;;;;;;;;;;;;;;;;;5070319;28;19932;-74
2023/09/30 09:24:38;;;;;;;;;;;;;;;;;;5076155;28;19997;-73
2023/09/30 09:27:06;;;;;;;;;;;;;;;;;;5079085;28;19924;-76
2023/09/30 09:29:33;;;;;;;;;;;;;;;;;;5087360;28;19924;-75
2023/09/30 09:32:00;;;;;;;;;;;;;;;;;;5076781;28;20521;-75
2023/09/30 09:34:27;;;;;;;;;;;;;;;;;;5080779;28;19931;-73
2023/09/30 09:36:54;;;;;;;;;;;;;;;;;;5075498;28;19924;-73
2023/09/30 09:39:21;;;;;;;;;;;;;;;;;;5074036;28;19978;-73
2023/09/30 09:41:49;;;;;;;;;;;;;;;;;;5082806;28;19943;-71
2023/09/30 09:44:16;;;;;;;;;;;;;;;;;;5088953;28;19924;-72
2023/09/30 09:46:43;;;;;;;;;;;;;;;;;;5071462;28;19924;-72
2023/09/30 09:49:10;;;;;;;;;;;;;;;;;;5080091;28;19924;-75
2023/09/30 09:51:37;;;;;;;;;;;;;;;;;;5074341;28;19928;-75
2023/09/30 09:54:06;;;;;;;;;;;;;;;;;;5075025;28;19925;-74
2023/09/30 09:56:33;;;;;;;;;;;;;;;;;;5071539;28;19925;-79
2023/09/30 09:59:00;;;;;;;;;;;;;;;;;;5084252;28;19931;-79
2023/09/30 10:01:27;;;;;;;;;;;;;;;;;;5079903;28;19970;-80
2023/09/30 10:03:55;;;;;;;;;;;;;;;;;;5070376;28;19978;-79
2023/09/30 10:06:22;;;;;;;;;;;;;;;;;;5071784;28;19978;-79
2023/09/30 10:08:50;;;;;;;;;;;;;;;;;;5072128;28;19928;-81
2023/09/30 10:11:17;;;;;;;;;;;;;;;;;;5073429;28;19925;-78
2023/09/30 10:13:45;;;;;;;;;;;;;;;;;;5085271;28;20354;-78
2023/09/30 10:16:12;;;;;;;;;;;;;;;;;;5083220;28;19924;-80
2023/09/30 10:18:39;;;;;;;;;;;;;;;;;;5082051;28;19928;-77
2023/09/30 10:21:06;;;;;;;;;;;;;;;;;;5080047;28;20386;-80
2023/09/30 10:23:34;;;;;;;;;;;;;;;;;;5074549;28;19925;-81
2023/09/30 10:26:01;;;;;;;;;;;;;;;;;;5084126;28;19924;-80
2023/09/30 10:28:29;;;;;;;;;;;;;;;;;;5075543;28;19925;-80
2023/09/30 10:30:56;;;;;;;;;;;;;;;;;;5072976;28;19925;-81
2023/09/30 10:33:23;;;;;;;;;;;;;;;;;;5088912;28;19970;-78
2023/09/30 10:35:49;;;;;;;;;;;;;;;;;;5084682;28;19981;-80
2023/09/30 10:38:16;;;;;;;;;;;;;;;;;;5075313;28;20367;-80
2023/09/30 10:40:43;;;;;;;;;;;;;;;;;;5075358;28;19928;-77
2023/09/30 10:43:10;;;;;;;;;;;;;;;;;;5076573;28;19974;-77
2023/09/30 10:45:38;;;;;;;;;;;;;;;;;;5077612;28;19977;-80
2023/09/30 10:48:05;;;;;;;;;;;;;;;;;;5085539;28;19928;-78
2023/09/30 10:50:32;;;;;;;;;;;;;;;;;;5080093;28;19964;-78
2023/09/30 10:52:59;;;;;;;;;;;;;;;;;;5081756;28;20128;-78
2023/09/30 10:55:26;;;;;;;;;;;;;;;;;;5078086;28;19986;-77
2023/09/30 10:57:53;;;;;;;;;;;;;;;;;;5081981;28;20431;-78
2023/09/30 11:00:20;;;;;;;;;;;;;;;;;;5087547;28;20314;-78
2023/09/30 11:02:47;;;;;;;;;;;;;;;;;;5077373;28;19928;-79
2023/09/30 11:05:14;;;;;;;;;;;;;;;;;;5082986;28;19986;-79
2023/09/30 11:07:41;;;;;;;;;;;;;;;;;;5079675;28;19978;-81
2023/09/30 11:10:09;;;;;;;;;;;;;;;;;;5086035;28;19971;-79
2023/09/30 11:12:36;;;;;;;;;;;;;;;;;;5085359;28;19931;-78
2023/09/30 11:15:03;;;;;;;;;;;;;;;;;;5095892;28;19977;-78
2023/09/30 11:17:30;;;;;;;;;;;;;;;;;;5095887;28;19924;-79
2023/09/30 11:19:57;;;;;;;;;;;;;;;;;;5093605;28;19924;-78
2023/09/30 11:22:24;;;;;;;;;;;;;;;;;;5095313;28;19932;-79
2023/09/30 11:24:51;;;;;;;;;;;;;;;;;;5095599;28;19970;-79
2023/09/30 11:27:19;;;;;;;;;;;;;;;;;;5094808;28;19924;-78
2023/09/30 11:29:46;;;;;;;;;;;;;;;;;;5089425;28;20027;-79
2023/09/30 11:32:15;;;;;;;;;;;;;;;;;;5094679;28;19989;-78
2023/09/30 11:34:42;;;;;;;;;;;;;;;;;;5093877;28;20359;-79
2023/09/30 11:37:10;;;;;;;;;;;;;;;;;;5094280;28;19924;-80
2023/09/30 11:39:37;;;;;;;;;;;;;;;;;;5094934;28;19924;-78
2023/09/30 11:42:04;;;;;;;;;;;;;;;;;;5094278;28;20279;-78
2023/09/30 11:44:31;;;;;;;;;;;;;;;;;;5093538;28;20402;-77
2023/09/30 11:47:00;;;;;;;;;;;;;;;;;;5085385;28;19928;-77
2023/09/30 11:49:27;;;;;;;;;;;;;;;;;;5089904;28;20302;-79
2023/09/30 11:51:54;;;;;;;;;;;;;;;;;;5077507;28;19966;-80
2023/09/30 11:54:22;;;;;;;;;;;;;;;;;;5074291;28;20421;-79
2023/09/30 11:56:50;;;;;;;;;;;;;;;;;;5073760;28;20007;-79
2023/09/30 11:59:19;;;;;;;;;;;;;;;;;;5077743;28;19929;-80
2023/09/30 12:01:48;;;;;;;;;;;;;;;;;;5091284;28;19924;-79
2023/09/30 12:04:17;;;;;;;;;;;;;;;;;;5086405;28;19924;-79
2023/09/30 12:06:44;;;;;;;;;;;;;;;;;;5091259;28;19924;-79
2023/09/30 12:09:14;;;;;;;;;;;;;;;;;;5082711;28;19928;-80
2023/09/30 12:11:43;;;;;;;;;;;;;;;;;;5074896;28;20025;-80
2023/09/30 12:14:10;;;;;;;;;;;;;;;;;;5091162;28;20345;-80
2023/09/30 12:16:37;;;;;;;;;;;;;;;;;;5076594;28;19924;-79
2023/09/30 12:19:06;;;;;;;;;;;;;;;;;;5090641;28;19978;-81
2023/09/30 12:21:34;;;;;;;;;;;;;;;;;;5084765;28;20018;-81
2023/09/30 12:24:01;;;;;;;;;;;;;;;;;;5085101;28;20363;-79
2023/09/30 12:26:28;;;;;;;;;;;;;;;;;;5078713;28;19978;-79
2023/09/30 12:28:55;;;;;;;;;;;;;;;;;;5089302;28;19924;-79
2023/09/30 12:31:23;;;;;;;;;;;;;;;;;;5072789;28;20319;-82
2023/09/30 12:33:51;;;;;;;;;;;;;;;;;;5074181;28;19943;-80
2023/09/30 12:36:18;;;;;;;;;;;;;;;;;;5081884;28;20326;-79
2023/09/30 12:38:45;;;;;;;;;;;;;;;;;;5082127;28;19924;-79
2023/09/30 12:41:32;;;;;;;;;;;;;;;;;;5171042;27;19919;-79
2023/09/30 12:43:59;;;;;;;;;;;;;;;;;;5150985;27;20433;-79
2023/09/30 12:46:26;;;;;;;;;;;;;;;;;;5151233;27;19968;-78
2023/09/30 12:48:54;;;;;;;;;;;;;;;;;;5152697;27;19930;-79
2023/09/30 12:51:21;;;;;;;;;;;;;;;;;;5151125;27;20023;-79
2023/09/30 12:53:48;;;;;;;;;;;;;;;;;;5151541;27;20652;-78
2023/09/30 12:56:15;;;;;;;;;;;;;;;;;;5150522;27;20435;-79
2023/09/30 12:58:42;;;;;;;;;;;;;;;;;;5148671;27;19924;-78
2023/09/30 13:01:09;;;;;;;;;;;;;;;;;;5149084;27;19923;-79
2023/09/30 13:03:36;;;;;;;;;;;;;;;;;;5158708;27;19923;-78
2023/09/30 13:06:04;;;;;;;;;;;;;;;;;;5150820;27;19923;-79
2023/09/30 13:08:33;;;;;;;;;;;;;;;;;;5150895;27;19923;-79
2023/09/30 13:11:02;;;;;;;;;;;;;;;;;;5151061;27;20298;-80
2023/09/30 13:13:29;;;;;;;;;;;;;;;;;;5159633;27;20403;-79
2023/09/30 13:15:55;;;;;;;;;;;;;;;;;;5151066;27;19984;-79
2023/09/30 13:18:23;;;;;;;;;;;;;;;;;;5162041;27;19979;-80
2023/09/30 13:20:52;;;;;;;;;;;;;;;;;;5163107;27;19927;-80
2023/09/30 13:23:19;;;;;;;;;;;;;;;;;;5150686;27;20409;-79
2023/09/30 13:25:46;;;;;;;;;;;;;;;;;;5150594;27;20024;-79
2023/09/30 13:28:14;;;;;;;;;;;;;;;;;;5151013;27;19943;-79
2023/09/30 13:30:41;;;;;;;;;;;;;;;;;;5151857;27;19923;-79
2023/09/30 13:33:07;;;;;;;;;;;;;;;;;;5168018;27;20642;-78
2023/09/30 13:35:36;;;;;;;;;;;;;;;;;;5147862;27;19924;-80
2023/09/30 13:38:03;;;;;;;;;;;;;;;;;;5150076;27;20275;-79
2023/09/30 13:40:30;;;;;;;;;;;;;;;;;;5148219;27;19923;-81
2023/09/30 13:42:58;;;;;;;;;;;;;;;;;;5169296;27;19986;-80
2023/09/30 13:45:28;;;;;;;;;;;;;;;;;;5154245;27;20026;-80
2023/09/30 13:47:55;;;;;;;;;;;;;;;;;;5153848;27;19940;-79
2023/09/30 13:50:22;;;;;;;;;;;;;;;;;;5146398;27;19923;-80
2023/09/30 13:52:49;;;;;;;;;;;;;;;;;;5136869;27;19929;-78
2023/09/30 13:55:18;;;;;;;;;;;;;;;;;;5153058;27;19968;-78
2023/09/30 13:57:46;;;;;;;;;;;;;;;;;;5156897;27;19929;-79
2023/09/30 14:00:13;;;;;;;;;;;;;;;;;;5155977;27;19930;-79
2023/09/30 14:02:40;;;;;;;;;;;;;;;;;;5134634;27;19937;-78
2023/09/30 14:05:08;;;;;;;;;;;;;;;;;;5136563;27;20037;-78
2023/09/30 14:07:35;;;;;;;;;;;;;;;;;;5140233;27;19983;-79
2023/09/30 14:10:03;;;;;;;;;;;;;;;;;;5124248;27;20444;-78
2023/09/30 14:12:30;;;;;;;;;;;;;;;;;;5115657;28;19924;-79
2023/09/30 14:14:57;;;;;;;;;;;;;;;;;;5143663;27;19923;-78
2023/09/30 14:17:25;;;;;;;;;;;;;;;;;;5143017;27;19924;-78
2023/09/30 14:19:52;;;;;;;;;;;;;;;;;;5124241;27;19930;-78
2023/09/30 14:22:19;;;;;;;;;;;;;;;;;;5135892;27;19943;-77
2023/09/30 14:24:46;;;;;;;;;;;;;;;;;;5123074;27;19977;-78
2023/09/30 14:27:15;;;;;;;;;;;;;;;;;;5129438;27;19969;-79
2023/09/30 14:29:43;;;;;;;;;;;;;;;;;;5136571;27;19976;-79
2023/09/30 14:32:10;;;;;;;;;;;;;;;;;;5142680;27;20003;-78
2023/09/30 14:34:37;;;;;;;;;;;;;;;;;;5139056;27;19975;-79
2023/09/30 14:37:04;;;;;;;;;;;;;;;;;;5135574;27;19924;-79
2023/09/30 14:39:31;;;;;;;;;;;;;;;;;;5135879;27;19951;-81
2023/09/30 14:41:58;;;;;;;;;;;;;;;;;;5135969;27;20055;-81
2023/09/30 14:44:26;;;;;;;;;;;;;;;;;;5122387;27;19924;-79
2023/09/30 14:46:53;;;;;;;;;;;;;;;;;;5133826;27;19923;-80
2023/09/30 14:49:20;;;;;;;;;;;;;;;;;;5141045;27;19923;-79
2023/09/30 14:51:48;;;;;;;;;;;;;;;;;;5135117;27;20239;-79
2023/09/30 14:54:15;;;;;;;;;;;;;;;;;;5135988;27;19923;-79
2023/09/30 14:56:42;;;;;;;;;;;;;;;;;;5135388;27;19966;-78
2023/09/30 14:59:09;;;;;;;;;;;;;;;;;;5132515;27;19968;-79
2023/09/30 15:01:36;;;;;;;;;;;;;;;;;;5128915;27;22108;-80
2023/09/30 15:04:03;;;;;;;;;;;;;;;;;;5154321;27;19926;-79
2023/09/30 15:06:30;;;;;;;;;;;;;;;;;;5151094;27;19923;-79
2023/09/30 15:08:57;;;;;;;;;;;;;;;;;;5135178;27;19923;-80
2023/09/30 15:11:24;;;;;;;;;;;;;;;;;;5118998;27;19924;-80
2023/09/30 15:13:51;;;;;;;;;;;;;;;;;;5125715;27;19968;-79
2023/09/30 15:16:18;;;;;;;;;;;;;;;;;;5152614;27;19927;-80
2023/09/30 15:18:46;;;;;;;;;;;;;;;;;;5134755;27;19924;-78
2023/09/30 15:21:13;;;;;;;;;;;;;;;;;;5134721;27;20014;-81
2023/09/30 15:23:40;;;;;;;;;;;;;;;;;;5128091;27;19963;-81
2023/09/30 15:26:07;;;;;;;;;;;;;;;;;;5115482;27;19945;-81
2023/09/30 15:28:34;;;;;;;;;;;;;;;;;;5135320;27;19927;-77
2023/09/30 15:31:01;;;;;;;;;;;;;;;;;;5134554;27;19946;-79
2023/09/30 15:33:28;;;;;;;;;;;;;;;;;;5139225;27;19927;-78
2023/09/30 15:35:55;;;;;;;;;;;;;;;;;;5123761;27;20443;-77
2023/09/30 15:38:23;;;;;;;;;;;;;;;;;;5141057;27;20223;-78
2023/09/30 15:40:50;;;;;;;;;;;;;;;;;;5133637;27;19934;-78
2023/09/30 15:43:17;;;;;;;;;;;;;;;;;;5132021;27;19975;-78
2023/09/30 15:45:44;;;;;;;;;;;;;;;;;;5133780;27;19949;-78
2023/09/30 15:48:12;;;;;;;;;;;;;;;;;;5135117;27;19963;-80
2023/09/30 15:50:39;;;;;;;;;;;;;;;;;;5133737;27;19931;-79
2023/09/30 15:53:07;;;;;;;;;;;;;;;;;;5113361;28;19924;-79
2023/09/30 15:55:33;;;;;;;;;;;;;;;;;;5120514;27;19923;-78
2023/09/30 15:58:00;;;;;;;;;;;;;;;;;;5150375;27;20030;-77
2023/09/30 16:00:27;;;;;;;;;;;;;;;;;;5152335;27;19923;-78
2023/09/30 16:02:55;;;;;;;;;;;;;;;;;;5151884;27;19923;-79
2023/09/30 16:05:22;;;;;;;;;;;;;;;;;;5154396;27;20446;-78
2023/09/30 16:07:49;;;;;;;;;;;;;;;;;;5149098;27;19975;-77
2023/09/30 16:10:16;;;;;;;;;;;;;;;;;;5113627;28;19927;-78
2023/09/30 16:12:43;;;;;;;;;;;;;;;;;;5119903;27;20013;-78
2023/09/30 16:15:11;;;;;;;;;;;;;;;;;;5133671;27;19923;-78
2023/09/30 16:17:38;;;;;;;;;;;;;;;;;;5132290;27;19923;-78
2023/09/30 16:20:05;;;;;;;;;;;;;;;;;;5154407;27;19967;-78
2023/09/30 16:22:32;;;;;;;;;;;;;;;;;;5154181;27;19930;-79
2023/09/30 16:25:01;;;;;;;;;;;;;;;;;;5147572;27;19931;-78
2023/09/30 16:27:28;;;;;;;;;;;;;;;;;;5132880;27;19976;-78
2023/09/30 16:29:55;;;;;;;;;;;;;;;;;;5133832;27;19923;-78
2023/09/30 16:32:22;;;;;;;;;;;;;;;;;;5139507;27;19952;-78
2023/09/30 16:34:49;;;;;;;;;;;;;;;;;;5137512;27;19923;-78
2023/09/30 16:37:16;;;;;;;;;;;;;;;;;;5133487;27;19923;-78
2023/09/30 16:39:44;;;;;;;;;;;;;;;;;;5135032;28;20247;-75
2023/09/30 16:42:11;;;;;;;;;;;;;;;;;;5119035;27;20378;-74
2023/09/30 16:44:38;;;;;;;;;;;;;;;;;;5113301;28;19999;-78
2023/09/30 16:47:05;;;;;;;;;;;;;;;;;;5124972;28;19984;-79